createdAt,value
2023-05-09T05:24:23.225Z,93.20
2023-05-09T05:26:51.392Z,93.20
2023-05-09T05:29:20.541Z,93.20
2023-05-09T05:31:48.443Z,93.20
2023-05-09T05:34:16.843Z,93.00
2023-05-09T05:36:46.595Z,92.90
2023-05-09T05:39:14.374Z,92.70
2023-05-09T05:41:42.087Z,92.50
2023-05-09T05:44:09.859Z,92.10
2023-05-09T05:46:37.421Z,91.80
2023-05-09T05:49:05.621Z,91.80
2023-05-09T05:51:34.462Z,92.10
2023-05-09T05:54:03.606Z,92.40
2023-05-09T05:56:31.790Z,92.40
2023-05-09T05:58:59.493Z,92.50
2023-05-09T06:01:27.181Z,92.40
2023-05-09T06:03:56.164Z,92.10
2023-05-09T06:06:27.775Z,91.80
2023-05-09T06:08:56.411Z,91.70
2023-05-09T06:11:24.026Z,91.50
2023-05-09T06:13:51.848Z,91.20
2023-05-09T06:16:20.669Z,90.80
2023-05-09T06:18:53.426Z,90.40
2023-05-09T06:21:23.537Z,89.90
2023-05-09T06:24:07.693Z,89.40
2023-05-09T06:26:37.786Z,89.00
2023-05-09T06:29:06.629Z,88.90
2023-05-09T06:31:39.153Z,88.40
2023-05-09T06:34:07.675Z,88.00
2023-05-09T06:36:35.687Z,88.00
2023-05-09T06:39:03.339Z,88.00
2023-05-09T06:41:31.054Z,88.10
2023-05-09T06:43:58.789Z,88.10
2023-05-09T06:46:26.462Z,88.20
2023-05-09T06:48:54.200Z,88.40
2023-05-09T06:51:21.760Z,88.50
2023-05-09T06:53:49.519Z,88.40
2023-05-09T06:56:18.377Z,88.30
2023-05-09T06:58:47.903Z,88.20
2023-05-09T07:01:15.649Z,88.20
2023-05-09T07:03:43.431Z,88.00
2023-05-09T07:06:11.362Z,87.80
2023-05-09T07:08:39.324Z,87.60
2023-05-09T07:11:06.893Z,87.40
2023-05-09T07:13:34.660Z,87.40
2023-05-09T07:16:02.358Z,87.30
2023-05-09T07:18:29.957Z,87.20
2023-05-09T07:20:57.853Z,87.00
2023-05-09T07:23:27.064Z,86.90
2023-05-09T07:26:15.359Z,86.90
2023-05-09T07:28:43.201Z,86.80
2023-05-09T07:31:11.145Z,86.80
2023-05-09T07:33:38.789Z,86.50
2023-05-09T07:36:06.566Z,86.30
2023-05-09T07:38:34.174Z,86.30
2023-05-09T07:41:01.901Z,86.20
2023-05-09T07:43:29.949Z,86.10
2023-05-09T07:45:57.652Z,85.90
2023-05-09T07:48:25.356Z,85.60
2023-05-09T07:50:53.031Z,85.30
2023-05-09T07:53:20.791Z,85.10
2023-05-09T07:55:50.190Z,84.80
2023-05-09T07:58:17.902Z,84.30
2023-05-09T08:00:45.543Z,84.00
2023-05-09T08:03:13.464Z,84.00
2023-05-09T08:05:41.215Z,83.90
2023-05-09T08:08:08.907Z,83.50
2023-05-09T08:10:36.838Z,83.10
2023-05-09T08:13:04.562Z,82.90
2023-05-09T08:15:32.269Z,82.80
2023-05-09T08:18:00.007Z,82.70
2023-05-09T08:20:31.896Z,82.80
2023-05-09T08:22:59.610Z,82.70
2023-05-09T08:25:27.478Z,82.60
2023-05-09T08:27:55.229Z,82.80
2023-05-09T08:30:23.023Z,83.00
2023-05-09T08:32:50.906Z,83.10
2023-05-09T08:35:18.625Z,83.00
2023-05-09T08:37:47.958Z,83.00
2023-05-09T08:40:16.665Z,82.80
2023-05-09T08:42:49.036Z,82.80
2023-05-09T08:45:18.602Z,82.70
2023-05-09T08:47:46.574Z,82.80
2023-05-09T08:50:15.795Z,83.10
2023-05-09T08:52:44.070Z,83.30
2023-05-09T08:55:12.773Z,83.40
2023-05-09T08:57:40.676Z,83.50
2023-05-09T09:00:13.588Z,83.60
2023-05-09T09:02:46.009Z,83.60
2023-05-09T09:05:34.004Z,83.50
2023-05-09T09:08:04.155Z,82.90
2023-05-09T09:10:33.377Z,82.00
2023-05-09T09:13:04.844Z,81.50
2023-05-09T09:15:37.678Z,81.00
2023-05-09T09:18:11.600Z,80.80
2023-05-09T09:20:48.051Z,80.60
2023-05-09T09:23:20.916Z,80.40
2023-05-09T09:25:48.970Z,80.40
2023-05-09T09:28:16.686Z,80.20
2023-05-09T09:30:53.296Z,79.90
2023-05-09T09:33:25.729Z,79.70
2023-05-09T09:35:55.038Z,79.70
2023-05-09T09:38:24.807Z,79.40
2023-05-09T09:40:52.427Z,79.40
2023-05-09T09:43:20.515Z,79.30
2023-05-09T09:45:51.118Z,79.10
2023-05-09T09:48:18.801Z,79.80
2023-05-09T09:50:48.430Z,80.80
2023-05-09T09:53:30.350Z,81.60
2023-05-09T09:55:58.557Z,82.30
2023-05-09T09:58:26.530Z,82.70
2023-05-09T10:08:00.421Z,82.00
2023-05-09T10:10:36.127Z,81.60
2023-05-09T10:13:26.013Z,81.00
2023-05-09T10:16:42.513Z,80.50
2023-05-09T10:19:13.036Z,80.10
2023-05-09T10:21:41.180Z,80.20
2023-05-09T10:24:09.786Z,80.40
2023-05-09T10:26:44.340Z,80.40
2023-05-09T10:29:15.865Z,80.30
2023-05-09T10:31:44.605Z,79.90
2023-05-09T10:34:13.263Z,79.50
2023-05-09T10:36:40.856Z,79.10
2023-05-09T10:39:08.881Z,78.30
2023-05-09T10:41:37.556Z,78.20
2023-05-09T10:44:05.514Z,76.90
2023-05-09T10:46:33.513Z,75.80
2023-05-09T10:49:01.501Z,75.70
2023-05-09T10:51:29.160Z,74.80
2023-05-09T10:53:58.005Z,74.40
2023-05-09T10:56:39.848Z,72.50
2023-05-09T10:59:43.292Z,72.40
2023-05-09T11:02:15.996Z,72.70
2023-05-09T11:04:45.062Z,72.80
2023-05-09T11:07:26.972Z,73.10
2023-05-09T11:10:15.820Z,73.40
2023-05-09T11:12:59.835Z,72.80
2023-05-09T11:15:27.949Z,71.90
2023-05-09T11:18:10.915Z,71.60
2023-05-09T11:20:49.366Z,71.50
2023-05-09T11:23:18.639Z,71.50
2023-05-09T11:25:50.387Z,71.40
2023-05-09T11:28:32.410Z,70.80
2023-05-09T11:31:35.199Z,70.30
2023-05-09T11:34:06.610Z,69.80
2023-05-09T11:36:34.871Z,68.90
2023-05-09T11:39:10.633Z,67.70
2023-05-09T11:41:46.886Z,69.50
2023-05-09T11:44:59.227Z,68.60
2023-05-09T11:47:29.078Z,68.50
2023-05-09T11:49:56.842Z,69.10
2023-05-09T11:52:25.850Z,69.90
2023-05-09T11:54:53.713Z,70.00
2023-05-09T11:57:21.598Z,70.30
2023-05-09T11:59:49.251Z,70.90
2023-05-09T12:02:17.281Z,71.40
2023-05-09T12:04:45.131Z,72.00
2023-05-09T12:07:13.225Z,72.40
2023-05-09T12:09:41.027Z,72.60
2023-05-09T12:12:11.731Z,72.60
2023-05-09T12:14:40.193Z,73.00
2023-05-09T12:17:08.391Z,73.00
2023-05-09T12:19:36.941Z,73.20
2023-05-09T12:22:10.102Z,73.10
2023-05-09T12:24:37.865Z,72.70
2023-05-09T12:27:05.824Z,72.90
2023-05-09T12:29:33.617Z,73.30
2023-05-09T12:32:01.520Z,73.50
2023-05-09T12:35:03.427Z,73.90
2023-05-09T12:43:43.953Z,78.20
2023-05-09T12:46:11.603Z,79.20
2023-05-09T12:48:39.640Z,80.30
2023-05-09T12:51:08.010Z,80.80
2023-05-09T12:53:42.254Z,81.40
2023-05-09T12:56:23.470Z,81.90
2023-05-09T12:58:53.496Z,82.10
2023-05-09T13:01:56.871Z,82.00
2023-05-09T13:04:26.810Z,81.30
2023-05-09T13:06:57.553Z,79.40
2023-05-09T13:09:27.458Z,78.30
2023-05-09T13:11:55.446Z,76.40
2023-05-09T13:14:23.334Z,75.90
2023-05-09T13:16:51.046Z,77.00
2023-05-09T13:19:18.644Z,76.90
2023-05-09T13:21:46.318Z,76.80
2023-05-09T13:24:56.671Z,76.60
2023-05-09T13:27:24.388Z,75.50
2023-05-09T13:29:52.001Z,75.00
2023-05-09T13:32:29.960Z,74.80
2023-05-09T13:35:15.093Z,74.60
2023-05-09T13:37:49.042Z,73.70
2023-05-09T13:44:25.552Z,73.40
2023-05-09T13:46:53.177Z,71.90
2023-05-09T13:49:34.979Z,72.10
2023-05-09T13:52:02.636Z,72.20
2023-05-09T13:54:37.107Z,72.70
2023-05-09T14:00:41.957Z,72.70
2023-05-09T14:10:13.959Z,72.60
2023-05-09T14:12:44.502Z,71.10
2023-05-09T14:15:12.414Z,71.30
2023-05-09T14:18:00.749Z,71.30
2023-05-09T14:24:06.772Z,70.90
2023-05-09T14:26:42.140Z,69.20
2023-05-09T14:29:09.987Z,69.20
2023-05-09T14:31:37.864Z,69.50
2023-05-09T14:34:36.497Z,69.00
2023-05-09T14:37:04.163Z,68.40
2023-05-09T14:39:32.382Z,68.30
2023-05-09T14:42:00.191Z,67.80
2023-05-09T14:44:27.749Z,67.20
2023-05-09T14:46:55.657Z,67.00
2023-05-09T14:50:11.521Z,66.90
2023-05-09T14:53:27.406Z,65.80
2023-05-09T14:55:56.128Z,65.50
2023-05-09T14:58:24.665Z,65.40
2023-05-09T15:00:53.560Z,65.90
2023-05-09T15:03:21.733Z,66.40
2023-05-09T15:05:50.479Z,67.10
2023-05-09T15:08:18.277Z,67.40
2023-05-09T15:10:46.576Z,68.00
2023-05-09T15:13:14.241Z,68.10
2023-05-09T15:15:45.025Z,68.80
2023-05-09T15:18:15.638Z,69.10
2023-05-09T15:20:43.600Z,67.10
2023-05-09T15:26:21.095Z,67.30
2023-05-09T15:28:48.749Z,66.70
2023-05-09T15:31:21.358Z,66.80
2023-05-09T15:33:49.019Z,66.50
2023-05-09T15:36:16.782Z,65.40
2023-05-09T15:38:48.367Z,65.00
2023-05-09T15:41:16.354Z,65.10
2023-05-09T15:43:44.090Z,64.90
2023-05-09T15:46:11.794Z,65.00
2023-05-09T15:48:39.748Z,65.20
2023-05-09T15:51:07.479Z,65.40
2023-05-09T15:53:35.402Z,65.70
2023-05-09T15:56:03.715Z,65.70
2023-05-09T15:58:31.545Z,65.80
2023-05-09T16:00:59.244Z,65.20
2023-05-09T16:03:27.912Z,65.40
2023-05-09T16:05:55.763Z,65.30
2023-05-09T16:08:24.138Z,65.60
2023-05-09T16:10:52.154Z,66.10
2023-05-09T16:13:35.909Z,66.40
2023-05-09T16:16:04.229Z,65.90
2023-05-09T16:18:32.089Z,65.50
2023-05-09T16:20:59.763Z,65.30
2023-05-09T16:23:27.499Z,65.20
2023-05-09T16:25:55.097Z,64.90
2023-05-09T16:28:28.032Z,64.70
2023-05-09T16:31:27.853Z,64.90
2023-05-09T16:33:55.519Z,65.10
2023-05-09T16:36:23.229Z,65.10
2023-05-09T16:38:50.902Z,64.40
2023-05-09T16:41:18.488Z,64.30
2023-05-09T16:43:46.152Z,63.30
2023-05-09T16:46:13.788Z,62.60
2023-05-09T16:48:43.039Z,62.60
2023-05-09T16:51:10.712Z,62.20
2023-05-09T16:53:38.258Z,62.10
2023-05-09T16:56:06.325Z,62.10
2023-05-09T16:58:35.440Z,61.70
2023-05-09T17:01:04.363Z,60.90
2023-05-09T17:03:52.906Z,60.00
2023-05-09T17:06:20.738Z,59.10
2023-05-09T17:08:49.699Z,58.50
2023-05-09T17:11:17.323Z,58.50
2023-05-09T17:13:44.953Z,57.90
2023-05-09T17:16:12.886Z,58.00
2023-05-09T17:18:45.813Z,57.50
2023-05-09T17:21:17.392Z,57.20
2023-05-09T17:23:45.050Z,56.40
2023-05-09T17:26:12.780Z,56.20
2023-05-09T17:28:40.402Z,56.00
2023-05-09T17:31:08.179Z,54.90
2023-05-09T17:33:35.916Z,54.20
2023-05-09T17:36:03.800Z,53.90
2023-05-09T17:38:31.627Z,54.30
2023-05-09T17:40:59.306Z,53.80
2023-05-09T17:43:28.370Z,53.70
2023-05-09T17:45:56.062Z,53.50
2023-05-09T17:48:23.634Z,53.50
2023-05-09T17:50:51.588Z,53.70
2023-05-09T17:53:19.210Z,53.10
2023-05-09T17:55:46.852Z,52.70
2023-05-09T17:58:15.328Z,52.50
2023-05-09T18:00:43.015Z,52.40
2023-05-09T18:03:10.695Z,52.30
2023-05-09T18:05:38.485Z,52.30
2023-05-09T18:08:06.786Z,52.40
2023-05-09T18:10:34.575Z,53.10
2023-05-09T18:13:03.376Z,52.60
2023-05-09T18:15:31.982Z,52.60
2023-05-09T18:17:59.530Z,52.20
2023-05-09T18:20:27.064Z,51.70
2023-05-09T18:22:55.206Z,51.80
2023-05-09T18:25:23.423Z,51.90
2023-05-09T18:27:51.199Z,52.10
2023-05-09T18:30:19.045Z,52.60
2023-05-09T18:32:47.248Z,52.60
2023-05-09T18:35:15.031Z,53.10
2023-05-09T18:37:46.155Z,53.70
2023-05-09T18:40:15.970Z,54.20
2023-05-09T18:42:43.854Z,54.80
2023-05-09T18:45:12.175Z,55.70
2023-05-09T18:47:39.772Z,56.30
2023-05-09T18:50:07.927Z,56.70
2023-05-09T18:52:35.684Z,56.90
2023-05-09T18:55:03.915Z,57.20
2023-05-09T18:57:31.558Z,57.80
2023-05-09T18:59:59.161Z,58.30
2023-05-09T19:02:26.841Z,59.00
2023-05-09T19:04:54.565Z,59.50
2023-05-09T19:07:22.718Z,59.80
2023-05-09T19:09:50.327Z,59.70
2023-05-09T19:12:17.949Z,59.80
2023-05-09T19:14:45.564Z,60.10
2023-05-09T19:17:13.341Z,60.70
2023-05-09T19:19:41.254Z,61.40
2023-05-09T19:22:08.889Z,62.00
2023-05-09T19:24:36.856Z,62.60
2023-05-09T19:27:05.233Z,63.20
2023-05-09T19:29:36.950Z,63.80
2023-05-09T19:32:07.078Z,64.30
2023-05-09T19:34:34.853Z,64.80
2023-05-09T19:37:03.596Z,65.30
2023-05-09T19:43:02.912Z,66.70
2023-05-09T19:45:31.284Z,67.20
2023-05-09T19:47:59.808Z,67.70
2023-05-09T19:50:28.198Z,68.10
